Tiempo atmosférico en la estación meteorológica de Olivenza, Badajoz (93 m.)



Fecha
DESCASC
Temp. máxima en grados centígrados (hora)
DESCASC
Temp. mínima en grados centígrados (hora)
DESCASC
Temp. media en grados centígrados
DESCASC
Racha de viento máxima en m/sg (hora)
DESCASC
Velocidad máxima media en intervalos de 10 minutos(hora)
DESCASC
Precipitaciones diarias en mm
DESCASC
Precipitaciones de 00:00 a 06:00 en mm
DESCASC
Precipitaciones de 06:00 a 12:00 en mm
DESCASC
Precipitaciones de 12:00 a 18:00 en mm
DESCASC
Precipitaciones de 18:00 a 24:00 en mm
DESCASC
22-08-2019 36.4 (16:10) 19.2 (07:50) 27.8 10.28 (17:00) 6.39 (17:20) 0 0 0 0 0
21-08-2019 35.9 (17:30) 17.3 (07:40) 26.6 7.78 (13:10) 4.72 (12:50) 0 0 0 0 0
20-08-2019 34 (19:00) 13.9 (08:00) 23.9 7.78 (15:20) 4.72 (04:40) 0 0 0 0 0
19-08-2019 33.2 (17:20) 14.2 (07:50) 23.7 11.39 (20:20) 6.67 (20:30) 0 0 0 0 0
18-08-2019 33.8 (17:50) 17.2 (00:00) 25.5 10 (20:50) 5.83 (06:40) 0 0 0 0 0
17-08-2019 37.8 (17:20) 15.3 (00:00) 26.5 10 (23:00) 5.83 (22:50) 0 0 0 0 0
16-08-2019 38.7 (18:00) 18.4 (00:00) 28.6 8.61 (21:00) 5.28 (20:20) 0 0 0 0 0
15-08-2019 38.7 (17:50) 18.3 (00:00) 28.5 9.72 (21:50) 5.56 (21:30) 0 0 0 0 0
14-08-2019 37.2 (18:10) 15.7 (00:00) 26.5 9.44 (22:00) 5 (22:00) 0 0 0 0 0
13-08-2019 34.4 (18:30) 13.6 (00:00) 24 8.33 (22:20) 4.72 (10:10) 0 0 0 0 0
12-08-2019 30.4 (17:20) 12.2 (00:00) 21.3 11.39 (14:00) 6.67 (11:30) 0 0 0 0 0
11-08-2019 29.1 (18:00) 14.3 (00:00) 21.7 10.28 (15:20) 6.11 (20:30) 0 0 0 0 0
10-08-2019 31.8 (17:50) 15.5 (00:00) 23.6 11.11 (22:20) 7.22 (22:20) 0 0 0 0 0
09-08-2019 28 (19:10) 21.2 (00:00) 24.6 9.17 (13:40) 6.11 (11:10) 0 0 0 0 0
08-08-2019 34.1 (17:40) 18.5 (00:00) 26.3 11.11 (17:50) 7.22 (18:10) 0 0 0 0 0
07-08-2019 29.1 (19:10) 18.5 (00:00) 23.8 7.22 (12:40) 5 (12:40) 0 0 0 0 0
06-08-2019 35.3 (17:30) 17.3 (00:00) 26.3 9.44 (18:20) 5.83 (16:30) 0 0 0 0 0
05-08-2019 35.8 (18:00) 13.7 (00:00) 24.7 9.17 (23:30) 5 (05:00) 0 0 0 0 0
04-08-2019 35.7 (17:10) 16.9 (00:00) 26.3 9.72 (19:40) 5.28 (19:50) 0 0 0 0 0
03-08-2019 35.7 (19:20) 15.2 (00:00) 25.5 11.11 (16:20) 6.39 (22:10) 0 0 0 0 0
02-08-2019 35.4 (17:40) 14.4 (00:00) 24.9 9.72 (22:40) 5.28 (00:30) 0 0 0 0 0
01-08-2019 35.6 (17:10) 16.2 (00:00) 25.9 9.44 (22:20) 5.28 (22:20) 0 0 0 0 0
31-07-2019 36.3 (17:20) 13.9 (00:00) 25.1 11.39 (19:50) 6.39 (20:00) 0 0 0 0 0
30-07-2019 31.8 (18:10) 12.6 (00:00) 22.2 10.28 (15:30) 6.11 (11:00) 0 0 0 0 0
29-07-2019 30.8 (16:50) 15.7 (00:00) 23.2 11.11 (20:00) 6.67 (20:00) 0 0 0 0 0
28-07-2019 33 (19:10) 15.7 (00:00) 24.3 9.72 (22:40) 5.83 (22:40) 0 0 0 0 0
27-07-2019 27.1 (19:00) 15.7 (00:00) 21.4 11.39 (00:30) 7.22 (13:00) 2.4 0 0 2.4 0
26-07-2019 29.7 (16:50) 15.3 (00:00) 22.5 11.11 (14:50) 6.39 (18:30) 0 0 0 0 0

Gráficas

Temp. máximas Temp. mínimas Temp. medias Precipitaciones Rachas de viento máximas Velocidades máximas media en intervalos de 10 minutos

Datos horarios

Fecha y hora oficial Temperatura (ºC) Velocidad del viento (km/h) Dirección del viento Racha (km/h) Dirección de racha Precipitación (mm) Presión (hPa) Tendencia (hPa) Humedad (%)
2019-08-24 23:00:00 28.8 13 Noroeste 33 Noroeste 0 -- -- 35
2019-08-24 22:00:00 31.1 17 Noroeste 30 Noroeste 0 -- -- 32
2019-08-24 21:00:00 33.6 6 Norte 12 Norte 0 -- -- 24
2019-08-24 20:00:00 36.3 7 Norte 14 Noroeste 0 -- -- 21
2019-08-24 19:00:00 37.1 8 Norte 20 Norte 0 -- -- 20
2019-08-24 18:00:00 37.3 9 Este 24 Norte 0 -- -- 20
2019-08-24 17:00:00 37.8 9 Oeste 22 Oeste 0 -- -- 22
2019-08-24 16:00:00 37.3 8 Oeste 24 Oeste 0 -- -- 25
2019-08-24 15:00:00 35.5 12 Sudoeste 24 Oeste 0 -- -- 28
2019-08-24 14:00:00 34.4 15 Sudoeste 22 Sudoeste 0 -- -- 30
2019-08-24 13:00:00 32.7 14 Sudoeste 21 Oeste 0 -- -- 33
2019-08-24 12:00:00 30.3 12 Sudoeste 21 Sudoeste 0 -- -- 37
2019-08-24 11:00:00 28 11 Sudoeste 18 Sudoeste 0 -- -- 41
2019-08-24 10:00:00 25.4 13 Sudoeste 22 Sudoeste 0 -- -- 47
2019-08-24 09:00:00 23.2 14 Sudoeste 25 Sudoeste 0 -- -- 51
2019-08-24 08:00:00 22.9 16 Sudoeste 27 Sudoeste 0 -- -- 50
2019-08-24 07:00:00 22.5 13 Sur 23 Sur 0 -- -- 54
2019-08-24 06:00:00 23.1 8 Sudoeste 18 Oeste 0 -- -- 52
2019-08-24 05:00:00 24.1 10 Sudoeste 16 Sudoeste 0 -- -- 50
2019-08-24 04:00:00 24.4 5 Sudoeste 12 Sudoeste 0 -- -- 50
2019-08-24 03:00:00 24.7 7 Sudoeste 12 Sudoeste 0 -- -- 50
2019-08-24 02:00:00 25.9 10 Sudoeste 15 Sudoeste 0 -- -- 48
2019-08-24 01:00:00 26.9 9 Oeste 22 Oeste 0 -- -- 42
2019-08-24 00:00:00 29.5 8 Este 12 Este 0 -- -- 30
2019-08-23 23:00:00 30.1 9 Este 10 Este 0 -- -- 30
2019-08-23 22:00:00 30.4 7 Nordeste 12 Nordeste 0 -- -- 29
2019-08-23 21:00:00 32.9 11 Nordeste 24 Nordeste 0 -- -- 26
2019-08-23 20:00:00 35.3 19 Nordeste 31 Nordeste 0 -- -- 24
2019-08-23 19:00:00 36.4 13 Nordeste 29 Nordeste 0 -- -- 26
2019-08-23 18:00:00 36.9 14 Nordeste 27 Este 0 -- -- 25
2019-08-23 17:00:00 37.3 16 Nordeste 31 Nordeste 0 -- -- 24
2019-08-23 16:00:00 37.4 14 Este 33 Nordeste 0 -- -- 23
2019-08-23 15:00:00 36.3 10 Nordeste 28 Nordeste 0 -- -- 25
2019-08-23 14:00:00 34.4 12 Nordeste 24 Nordeste 0 -- -- 28
2019-08-23 13:00:00 32.4 10 Este 21 Este 0 -- -- 34
2019-08-23 12:00:00 30.7 8 Norte 16 Nordeste 0 -- -- 38
2019-08-23 11:00:00 29 5 Sudoeste 10 Oeste 0 -- -- 43
2019-08-23 10:00:00 26.7 4 Este 9 Sudeste 0 -- -- 45
2019-08-23 09:00:00 22.8 3 Sudeste 10 Este 0 -- -- 52
2019-08-23 08:00:00 21.4 3 Este 8 Sur 0 -- -- 58
2019-08-23 07:00:00 22.1 4 Sudoeste 13 Sudoeste 0 -- -- 55
2019-08-23 06:00:00 22.8 5 Sudoeste 10 Sudoeste 0 -- -- 52
2019-08-23 05:00:00 23.7 2 Noroeste 30 Sudoeste 0 -- -- 46
2019-08-23 04:00:00 24.7 16 Sudoeste 31 Sur 0 -- -- 44
2019-08-23 03:00:00 24.7 14 Sudoeste 23 Sur 0 -- -- 44
2019-08-23 02:00:00 25.7 14 Sur 40 Sudoeste 0 -- -- 41
2019-08-23 01:00:00 27.7 26 Sudoeste 36 Sudoeste 0 -- -- 40
2019-08-23 00:00:00 29.8 18 Sur 32 Sur 0 -- -- 42
2019-08-22 23:00:00 28.8 9 Nordeste 13 Nordeste 0 -- -- 28
2019-08-22 22:00:00 29.4 12 Nordeste 17 Nordeste 0 -- -- 28
2019-08-22 21:00:00 32.6 15 Nordeste 30 Norte 0 -- -- 24
2019-08-22 20:00:00 34.7 21 Nordeste 28 Nordeste 0 -- -- 23
2019-08-22 19:00:00 35.7 19 Nordeste 36 Nordeste 0 -- -- 23
2019-08-22 18:00:00 35.9 18 Nordeste 36 Nordeste 0 -- -- 25
2019-08-22 17:00:00 35.9 20 Nordeste 37 Nordeste 0 -- -- 25
2019-08-22 16:00:00 36 18 Este 34 Nordeste 0 -- -- 23
2019-08-22 15:00:00 35.2 17 Nordeste 33 Nordeste 0 -- -- 30
2019-08-22 14:00:00 34.1 13 Este 24 Este 0 -- -- 35
2019-08-22 13:00:00 31.4 11 Nordeste 30 Sudoeste 0 -- -- 34
2019-08-22 12:00:00 29.1 6 Norte 14 Nordeste 0 -- -- 33
2019-08-22 11:00:00 27.5 6 Nordeste 12 Nordeste 0 -- -- 37
2019-08-22 10:00:00 24.8 5 Oeste 9 Oeste 0 -- -- 43
2019-08-22 09:00:00 21.4 2 Noroeste 8 Oeste 0 -- -- 47
2019-08-22 08:00:00 19.2 6 Oeste 9 Oeste 0 -- -- 49
2019-08-22 07:00:00 19.5 6 Noroeste 15 Nordeste 0 -- -- 46
2019-08-22 06:00:00 19.6 13 Nordeste 16 Nordeste 0 -- -- 45
2019-08-22 05:00:00 21.3 3 Sur 32 Este 0 -- -- 41
2019-08-22 04:00:00 22.7 5 Sudoeste 12 Sudeste 0 -- -- 45
2019-08-22 03:00:00 23 8 Sur 13 Sudeste 0 -- -- 40
2019-08-22 02:00:00 24.2 7 Sur 12 Sur 0 -- -- 43
2019-08-22 01:00:00 24.7 8 Oeste 20 Oeste 0 -- -- 39
2019-08-22 00:00:00 27.6 6 Sudeste 11 Sudeste 0 -- -- 21
2019-08-21 23:00:00 28.2 8 Sudeste 8 Sudeste 0 -- -- 22
2019-08-21 22:00:00 29.6 5 Nordeste 8 Nordeste 0 -- -- 20
2019-08-21 21:00:00 31.4 7 Nordeste 15 Norte 0 -- -- 22
2019-08-21 20:00:00 34 9 Nordeste 21 Norte 0 -- -- 18
2019-08-21 19:00:00 34.7 12 Nordeste 19 Norte 0 -- -- 18
2019-08-21 18:00:00 35.6 9 Norte 18 Norte 0 -- -- 20
2019-08-21 17:00:00 35.7 5 Sudeste 18 Oeste 0 -- -- 19
2019-08-21 16:00:00 34.9 9 Oeste 26 Oeste 0 -- -- 23
2019-08-21 15:00:00 33.5 10 Sudoeste 22 Oeste 0 -- -- 29
2019-08-21 14:00:00 31.9 9 Sudoeste 28 Oeste 0 -- -- 33
2019-08-21 13:00:00 30.5 15 Sudoeste 25 Oeste 0 -- -- 39
2019-08-21 12:00:00 28.3 13 Sudoeste 26 Sudoeste 0 -- -- 43
2019-08-21 11:00:00 26 10 Sudoeste 17 Sudoeste 0 -- -- 45
2019-08-21 10:00:00 23 11 Sudoeste 14 Sudoeste 0 -- -- 50
2019-08-21 09:00:00 19.6 6 Oeste 13 Oeste 0 -- -- 61
2019-08-21 08:00:00 17.4 10 Oeste 13 Oeste 0 -- -- 69
2019-08-21 07:00:00 17.6 7 Sudoeste 9 Sur 0 -- -- 67
2019-08-21 06:00:00 17.6 9 Sur 10 Sur 0 -- -- 68
2019-08-21 05:00:00 19 5 Sudoeste 11 Sudoeste 0 -- -- 64
2019-08-21 04:00:00 20.1 9 Sudoeste 13 Sudoeste 0 -- -- 61
2019-08-21 03:00:00 20.8 8 Sudoeste 9 Sudoeste 0 -- -- 58
2019-08-21 02:00:00 22 6 Sudoeste 14 Oeste 0 -- -- 55
2019-08-21 01:00:00 23.2 8 Oeste 16 Noroeste 0 -- -- 50
2019-08-21 00:00:00 24.1 9 Oeste 17 Oeste 0 -- -- 40
2019-08-20 23:00:00 27.6 5 Sur 9 Sudeste 0 -- -- 25
2019-08-20 22:00:00 28.9 7 Sudeste 9 Sudeste 0 -- -- 23
2019-08-20 21:00:00 31.4 6 Sudeste 12 Sudeste 0 -- -- 20
2019-08-20 20:00:00 33.1 4 Este 20 Este 0 -- -- 19
2019-08-20 19:00:00 34 5 Noroeste 25 Nordeste 0 -- -- 18
2019-08-20 18:00:00 33.6 13 Norte 21 Norte 0 -- -- 20
2019-08-20 17:00:00 33.6 11 Norte 27 Nordeste 0 -- -- 21
2019-08-20 16:00:00 32.1 12 Norte 28 Norte 0 -- -- 26
2019-08-20 15:00:00 31.1 13 Norte 23 Nordeste 0 -- -- 32
2019-08-20 14:00:00 28.7 14 Nordeste 25 Norte 0 -- -- 38
2019-08-20 13:00:00 26.3 9 Norte 20 Nordeste 0 -- -- 44
2019-08-20 12:00:00 23.9 5 Norte 11 Nordeste 0 -- -- 51
2019-08-20 11:00:00 20.5 4 Sudoeste 12 Sudoeste 0 -- -- 62
2019-08-20 10:00:00 17.4 8 Oeste 15 Oeste 0 -- -- 75
2019-08-20 09:00:00 15 11 Sudoeste 16 Oeste 0 -- -- 86
2019-08-20 08:00:00 13.9 9 Oeste 18 Oeste 0 -- -- 88
2019-08-20 07:00:00 14.5 12 Oeste 19 Oeste 0 -- -- 85
2019-08-20 06:00:00 15.7 12 Oeste 27 Oeste 0 -- -- 79
2019-08-20 05:00:00 16.2 14 Oeste 24 Oeste 0 -- -- 75
2019-08-20 04:00:00 16.6 14 Oeste 24 Noroeste 0 -- -- 71
2019-08-20 03:00:00 17.5 12 Oeste 22 Oeste 0 -- -- 64
2019-08-20 02:00:00 17.6 12 Oeste 19 Oeste 0 -- -- 63
2019-08-20 01:00:00 18.1 14 Oeste 27 Noroeste 0 -- -- 60
2019-08-20 00:00:00 20.1 12 Noroeste 26 Noroeste 0 -- -- 51
2019-08-19 23:00:00 21.3 12 Oeste 31 Noroeste 0 -- -- 45
2019-08-19 22:00:00 22.5 18 Noroeste 39 Noroeste 0 -- -- 40
2019-08-19 21:00:00 25.7 19 Noroeste 41 Noroeste 0 -- -- 37
2019-08-19 20:00:00 31 14 Noroeste 26 Noroeste 0 -- -- 21
2019-08-19 19:00:00 31.5 14 Noroeste 30 Noroeste 0 -- -- 17
2019-08-19 18:00:00 32.9 14 Noroeste 30 Oeste 0 -- -- 16
2019-08-19 17:00:00 32.8 12 Oeste 26 Oeste 0 -- -- 17
2019-08-19 16:00:00 32.3 9 Noroeste 25 Oeste 0 -- -- 24
2019-08-19 15:00:00 30.8 14 Oeste 26 Oeste 0 -- -- 27
2019-08-19 14:00:00 28.4 13 Oeste 21 Oeste 0 -- -- 30
2019-08-19 13:00:00 26.1 9 Oeste 17 Oeste 0 -- -- 42
2019-08-19 12:00:00 23.3 8 Oeste 19 Oeste 0 -- -- 51
2019-08-19 11:00:00 20.2 12 Oeste 19 Oeste 0 -- -- 61
2019-08-19 10:00:00 17.7 14 Oeste 22 Oeste 0 -- -- 71
2019-08-19 09:00:00 15.4 10 Oeste 17 Oeste 0 -- -- 81
2019-08-19 08:00:00 14.2 10 Oeste 27 Oeste 0 -- -- 84
2019-08-19 07:00:00 14.6 15 Oeste 26 Oeste 0 -- -- 80
2019-08-19 06:00:00 15 15 Oeste 24 Oeste 0 -- -- 78
2019-08-19 05:00:00 15.7 12 Oeste 23 Oeste 0 -- -- 76
2019-08-19 04:00:00 16.8 13 Oeste 24 Oeste 0 -- -- 74
2019-08-19 03:00:00 18.3 12 Oeste 26 Oeste 0 -- -- 72
2019-08-19 02:00:00 20 13 Oeste 25 Oeste 0 -- -- 73
2019-08-19 01:00:00 21.3 11 Oeste 26 Noroeste 0 -- -- 74
2019-08-19 00:00:00 22.6 13 Noroeste 30 Noroeste 0 -- -- 71
2019-08-18 23:00:00 24.2 17 Noroeste 32 Noroeste 0 -- -- 67
2019-08-18 22:00:00 26.3 15 Noroeste 33 Noroeste 0 -- -- 59
2019-08-18 21:00:00 29.3 19 Noroeste 36 Noroeste 0 -- -- 47
2019-08-18 20:00:00 32 15 Noroeste 29 Noroeste 0 -- -- 38
2019-08-18 19:00:00 32.7 16 Noroeste 33 Oeste 0 -- -- 35
2019-08-18 18:00:00 33.3 15 Noroeste 32 Norte 0 -- -- 33
2019-08-18 17:00:00 33.2 16 Noroeste 32 Oeste 0 -- -- 33
2019-08-18 16:00:00 32.8 17 Noroeste 33 Noroeste 0 -- -- 29
2019-08-18 15:00:00 32.6 18 Noroeste 32 Noroeste 0 -- -- 33
2019-08-18 14:00:00 30.5 16 Oeste 28 Noroeste 0 -- -- 42
2019-08-18 13:00:00 28.7 14 Oeste 27 Oeste 0 -- -- 46
2019-08-18 12:00:00 26.5 13 Noroeste 23 Noroeste 0 -- -- 52
2019-08-18 11:00:00 23.5 12 Oeste 23 Oeste 0 -- -- 64
2019-08-18 10:00:00 20.7 11 Oeste 24 Oeste 0 -- -- 77
2019-08-18 09:00:00 18.7 16 Oeste 25 Oeste 0 -- -- 85
2019-08-18 08:00:00 17.7 16 Oeste 25 Oeste 0 -- -- 90
2019-08-18 07:00:00 17.4 19 Oeste 32 Oeste 0 -- -- 92
2019-08-18 06:00:00 17.5 17 Oeste 26 Oeste 0 -- -- 89
2019-08-18 05:00:00 17.8 15 Oeste 24 Oeste 0 -- -- 88
2019-08-18 04:00:00 18.2 13 Oeste 21 Oeste 0 -- -- 86
2019-08-18 03:00:00 19.1 16 Oeste 23 Oeste 0 -- -- 80
2019-08-18 02:00:00 20.6 12 Oeste 24 Oeste 0 -- -- 70
2019-08-18 01:00:00 22.3 12 Oeste 23 Noroeste 0 -- -- 61
2019-08-18 00:00:00 24.6 13 Oeste 30 Oeste 0 -- -- 55
2019-08-17 23:00:00 27.6 19 Noroeste 36 Noroeste 0 -- -- 47
2019-08-17 22:00:00 30.4 14 Oeste 28 Noroeste 0 -- -- 33
2019-08-17 21:00:00 34.4 12 Oeste 24 Oeste 0 -- -- 20
2019-08-17 20:00:00 36.1 17 Sudoeste 28 Sudoeste 0 -- -- 19
2019-08-17 19:00:00 36.9 19 Sudoeste 32 Sudoeste 0 -- -- 16
2019-08-17 18:00:00 37.4 17 Sudoeste 29 Sudoeste 0 -- -- 15
2019-08-17 17:00:00 37.3 15 Sudoeste 34 Oeste 0 -- -- 15
2019-08-17 16:00:00 36.2 20 Sudoeste 31 Oeste 0 -- -- 15
2019-08-17 15:00:00 34.7 15 Sudoeste 29 Sudoeste 0 -- -- 20
2019-08-17 14:00:00 31.9 11 Oeste 21 Oeste 0 -- -- 31
2019-08-17 13:00:00 28.8 7 Oeste 15 Sudoeste 0 -- -- 43
2019-08-17 12:00:00 25.5 7 Oeste 15 Oeste 0 -- -- 53
2019-08-17 11:00:00 22.2 8 Oeste 15 Oeste 0 -- -- 65
2019-08-17 10:00:00 19.1 10 Oeste 15 Oeste 0 -- -- 79
2019-08-17 09:00:00 16.8 9 Sudoeste 16 Oeste 0 -- -- 91
2019-08-17 08:00:00 15.3 9 Oeste 18 Oeste 0 -- -- 94
2019-08-17 07:00:00 15.8 11 Oeste 23 Oeste 0 -- -- 91
2019-08-17 06:00:00 16.7 11 Oeste 19 Oeste 0 -- -- 87
2019-08-17 05:00:00 17.4 11 Oeste 21 Oeste 0 -- -- 81
2019-08-17 04:00:00 18.3 14 Oeste 30 Oeste 0 -- -- 76
2019-08-17 03:00:00 19.8 18 Oeste 29 Oeste 0 -- -- 66
2019-08-17 02:00:00 21.6 14 Oeste 24 Oeste 0 -- -- 54
2019-08-17 01:00:00 22.9 14 Oeste 22 Oeste 0 -- -- 48
2019-08-17 00:00:00 24.7 12 Oeste 24 Oeste 0 -- -- 45
2019-08-16 23:00:00 26.8 13 Oeste 24 Oeste 0 -- -- 36
2019-08-16 22:00:00 29.2 13 Noroeste 30 Noroeste 0 -- -- 30
2019-08-16 21:00:00 32.8 19 Noroeste 31 Noroeste 0 -- -- 28
2019-08-16 20:00:00 36.1 18 Noroeste 28 Oeste 0 -- -- 24
2019-08-16 19:00:00 38 17 Noroeste 29 Oeste 0 -- -- 20
2019-08-16 18:00:00 38.7 16 Noroeste 30 Noroeste 0 -- -- 21
2019-08-16 17:00:00 38.1 12 Noroeste 28 Oeste 0 -- -- 25
2019-08-16 16:00:00 37.3 11 Sudoeste 22 Oeste 0 -- -- 26
2019-08-16 15:00:00 36.1 13 Oeste 25 Oeste 0 -- -- 28
2019-08-16 14:00:00 34.2 10 Oeste 21 Oeste 0 -- -- 33
2019-08-16 13:00:00 31.9 7 Sudoeste 15 Oeste 0 -- -- 38
2019-08-16 12:00:00 29 9 Oeste 17 Oeste 0 -- -- 45
2019-08-16 11:00:00 25.5 11 Oeste 16 Sudoeste 0 -- -- 54
2019-08-16 10:00:00 22.1 9 Sudoeste 14 Sudoeste 0 -- -- 65
2019-08-16 09:00:00 19.5 12 Sudoeste 17 Sudoeste 0 -- -- 73
2019-08-16 08:00:00 18.4 12 Oeste 18 Oeste 0 -- -- 77
2019-08-16 07:00:00 18.8 12 Sudoeste 18 Oeste 0 -- -- 75
2019-08-16 06:00:00 19.5 14 Oeste 22 Oeste 0 -- -- 71
2019-08-16 05:00:00 20.2 13 Oeste 21 Oeste 0 -- -- 69
2019-08-16 04:00:00 20.8 12 Oeste 18 Sudoeste 0 -- -- 68
2019-08-16 03:00:00 21.8 10 Oeste 19 Oeste 0 -- -- 65
2019-08-16 02:00:00 22.9 11 Oeste 21 Oeste 0 -- -- 62
2019-08-16 01:00:00 24.2 11 Oeste 20 Oeste 0 -- -- 56
2019-08-16 00:00:00 26 10 Oeste 24 Noroeste 0 -- -- 48
2019-08-15 23:00:00 28.3 15 Noroeste 28 Noroeste 0 -- -- 40
2019-08-15 22:00:00 30.9 18 Noroeste 35 Noroeste 0 -- -- 33
2019-08-15 21:00:00 35 17 Noroeste 29 Noroeste 0 -- -- 25
2019-08-15 20:00:00 37.8 14 Noroeste 24 Noroeste 0 -- -- 19
2019-08-15 19:00:00 38.2 4 Norte 23 Oeste 0 -- -- 19
2019-08-15 18:00:00 38.5 8 Norte 24 Oeste 0 -- -- 21
2019-08-15 17:00:00 37.8 13 Norte 27 Norte 0 -- -- 25
2019-08-15 16:00:00 37.3 5 Nordeste 19 Norte 0 -- -- 24
2019-08-15 15:00:00 36.6 7 Nordeste 20 Norte 0 -- -- 25
2019-08-15 14:00:00 34.3 10 Nordeste 21 Nordeste 0 -- -- 33
2019-08-15 13:00:00 32.2 9 Nordeste 17 Nordeste 0 -- -- 40
2019-08-15 12:00:00 30.3 9 Nordeste 18 Nordeste 0 -- -- 45
2019-08-15 11:00:00 27.4 8 Nordeste 14 Norte 0 -- -- 55
2019-08-15 10:00:00 22.9 6 Oeste 10 Oeste 0 -- -- 71
2019-08-15 09:00:00 19.9 7 Oeste 10 Sudoeste 0 -- -- 83
2019-08-15 08:00:00 18.3 6 Sudoeste 9 Sudoeste 0 -- -- 88
2019-08-15 07:00:00 18.4 6 Oeste 13 Sudoeste 0 -- -- 88
2019-08-15 06:00:00 18.8 10 Sudoeste 15 Sudoeste 0 -- -- 86
2019-08-15 05:00:00 19.5 10 Sudoeste 15 Sudoeste 0 -- -- 81
2019-08-15 04:00:00 20.2 11 Sudoeste 17 Oeste 0 -- -- 78
2019-08-15 03:00:00 20.9 10 Sudoeste 15 Sudoeste 0 -- -- 74
2019-08-15 02:00:00 22.2 9 Oeste 12 Sudoeste 0 -- -- 69
2019-08-15 01:00:00 23.8 6 Oeste 18 Oeste 0 -- -- 63
2019-08-15 00:00:00 25.6 8 Oeste 23 Noroeste 0 -- -- 56
2019-08-14 23:00:00 27.6 13 Noroeste 28 Noroeste 0 -- -- 46
2019-08-14 22:00:00 29.8 18 Noroeste 34 Noroeste 0 -- -- 34
2019-08-14 21:00:00 33.6 11 Noroeste 22 Noroeste 0 -- -- 21
2019-08-14 20:00:00 35.7 11 Noroeste 22 Noroeste 0 -- -- 18
2019-08-14 19:00:00 36.7 8 Oeste 28 Oeste 0 -- -- 16
2019-08-14 18:00:00 37 9 Noroeste 27 Norte 0 -- -- 15
2019-08-14 17:00:00 36.8 8 Noroeste 29 Noroeste 0 -- -- 16
2019-08-14 16:00:00 36.4 7 Oeste 18 Norte 0 -- -- 16
2019-08-14 15:00:00 35.4 8 Noroeste 19 Nordeste 0 -- -- 16
2019-08-14 14:00:00 34.1 6 Noroeste 17 Norte 0 -- -- 18
2019-08-14 13:00:00 31.3 6 Nordeste 13 Nordeste 0 -- -- 23
2019-08-14 12:00:00 28.5 6 Nordeste 17 Nordeste 0 -- -- 29
2019-08-14 11:00:00 25.7 11 Nordeste 18 Nordeste 0 -- -- 35
2019-08-14 10:00:00 21.9 0 Calma 5 Sudoeste 0 -- -- 48
2019-08-14 09:00:00 17.1 4 Oeste 8 Oeste 0 -- -- 62
2019-08-14 08:00:00 15.7 4 Noroeste 6 Noroeste 0 -- -- 67
2019-08-14 07:00:00 16.2 3 Sur 7 Sur 0 -- -- 65
2019-08-14 06:00:00 16.1 6 Sur 9 Sudoeste 0 -- -- 65
2019-08-14 05:00:00 17 6 Sudoeste 11 Sudoeste 0 -- -- 62
2019-08-14 04:00:00 17.9 9 Sudoeste 13 Sudoeste 0 -- -- 60
2019-08-14 03:00:00 18.7 10 Oeste 13 Sudoeste 0 -- -- 57
2019-08-14 02:00:00 19.9 8 Oeste 11 Oeste 0 -- -- 53
2019-08-14 01:00:00 21.6 6 Oeste 14 Oeste 0 -- -- 49
2019-08-14 00:00:00 23.5 9 Noroeste 22 Noroeste 0 -- -- 46
2019-08-13 23:00:00 25.6 12 Noroeste 30 Noroeste 0 -- -- 41
2019-08-13 22:00:00 28.4 12 Noroeste 23 Noroeste 0 -- -- 30
2019-08-13 21:00:00 32.2 5 Nordeste 9 Este 0 -- -- 16
2019-08-13 20:00:00 33.3 6 Norte 18 Nordeste 0 -- -- 15
2019-08-13 19:00:00 33.7 11 Nordeste 21 Norte 0 -- -- 14
2019-08-13 18:00:00 33.4 7 Norte 22 Norte 0 -- -- 14
2019-08-13 17:00:00 33.5 10 Nordeste 23 Norte 0 -- -- 15
2019-08-13 16:00:00 32.8 14 Norte 25 Norte 0 -- -- 15
2019-08-13 15:00:00 32.2 8 Nordeste 22 Nordeste 0 -- -- 18
2019-08-13 14:00:00 30.6 8 Norte 21 Norte 0 -- -- 22
2019-08-13 13:00:00 28.8 9 Norte 19 Nordeste 0 -- -- 25
2019-08-13 12:00:00 26.3 12 Norte 18 Nordeste 0 -- -- 30
2019-08-13 11:00:00 23.4 13 Norte 23 Norte 0 -- -- 35
2019-08-13 10:00:00 21.6 15 Norte 22 Norte 0 -- -- 39
2019-08-13 09:00:00 16.1 0 Calma 4 Sur 0 -- -- 70
2019-08-13 08:00:00 13.7 3 Sudoeste 7 Sudoeste 0 -- -- 81
2019-08-13 07:00:00 14.2 6 Sudoeste 8 Oeste 0 -- -- 78
2019-08-13 06:00:00 14.6 7 Sudoeste 9 Sudoeste 0 -- -- 75
2019-08-13 05:00:00 15.2 6 Sudoeste 10 Oeste 0 -- -- 73
2019-08-13 04:00:00 16.2 5 Sudoeste 9 Oeste 0 -- -- 68
2019-08-13 03:00:00 17.4 6 Sudoeste 11 Oeste 0 -- -- 64
2019-08-13 02:00:00 18.9 7 Oeste 12 Oeste 0 -- -- 58
2019-08-13 01:00:00 20 8 Noroeste 26 Noroeste 0 -- -- 53
2019-08-13 00:00:00 21.8 13 Noroeste 23 Oeste 0 -- -- 44
2019-08-12 23:00:00 23.9 13 Norte 18 Norte 0 -- -- 23
2019-08-12 22:00:00 24.7 12 Norte 18 Norte 0 -- -- 22
2019-08-12 21:00:00 28.1 14 Norte 24 Norte 0 -- -- 18
2019-08-12 20:00:00 29.3 20 Nordeste 27 Norte 0 -- -- 16
2019-08-12 19:00:00 29.3 20 Norte 34 Norte 0 -- -- 17
2019-08-12 18:00:00 29.9 22 Norte 39 Norte 0 -- -- 19
2019-08-12 17:00:00 29.8 22 Norte 34 Norte 0 -- -- 20
2019-08-12 16:00:00 29.7 23 Norte 39 Norte 0 -- -- 21
2019-08-12 15:00:00 28.6 23 Norte 37 Norte 0 -- -- 21
2019-08-12 14:00:00 27.1 21 Norte 41 Norte 0 -- -- 26
2019-08-12 13:00:00 25.5 22 Norte 34 Norte 0 -- -- 31
2019-08-12 12:00:00 23 22 Norte 37 Norte 0 -- -- 39
2019-08-12 11:00:00 21.1 22 Norte 32 Norte 0 -- -- 45
2019-08-12 10:00:00 18.7 20 Norte 28 Norte 0 -- -- 53
2019-08-12 09:00:00 16.3 10 Norte 15 Norte 0 -- -- 62
2019-08-12 08:00:00 12.2 2 Oeste 7 Oeste 0 -- -- 83
2019-08-12 07:00:00 12.6 5 Oeste 8 Oeste 0 -- -- 81
2019-08-12 06:00:00 13.2 4 Sudoeste 6 Sudoeste 0 -- -- 78
2019-08-12 05:00:00 13.6 3 Oeste 15 Noroeste 0 -- -- 75
2019-08-12 04:00:00 14.3 6 Noroeste 13 Noroeste 0 -- -- 72
2019-08-12 03:00:00 15.6 6 Noroeste 16 Noroeste 0 -- -- 68
2019-08-12 02:00:00 16.9 10 Noroeste 28 Norte 0 -- -- 63
2019-08-12 01:00:00 18 12 Noroeste 29 Noroeste 0 -- -- 57
2019-08-12 00:00:00 19.2 17 Noroeste 35 Noroeste 0 -- -- 51
2019-08-11 23:00:00 20.7 19 Noroeste 36 Noroeste 0 -- -- 45
2019-08-11 22:00:00 22.4 20 Noroeste 36 Noroeste 0 -- -- 39
2019-08-11 21:00:00 25.2 20 Noroeste 37 Noroeste 0 -- -- 32
2019-08-11 20:00:00 26.9 19 Noroeste 37 Noroeste 0 -- -- 29
2019-08-11 19:00:00 27.7 15 Noroeste 36 Noroeste 0 -- -- 29
2019-08-11 18:00:00 29.1 19 Noroeste 37 Noroeste 0 -- -- 26
2019-08-11 17:00:00 28.2 14 Noroeste 34 Oeste 0 -- -- 29
2019-08-11 16:00:00 26.9 17 Noroeste 37 Oeste 0 -- -- 32
2019-08-11 15:00:00 27.1 20 Noroeste 35 Oeste 0 -- -- 29
2019-08-11 14:00:00 26.3 18 Noroeste 31 Noroeste 0 -- -- 31
2019-08-11 13:00:00 24.5 15 Noroeste 51 Norte 0 -- -- 37
2019-08-11 12:00:00 22.5 17 Noroeste 30 Oeste 0 -- -- 45
2019-08-11 11:00:00 20.6 19 Noroeste 35 Oeste 0 -- -- 53
2019-08-11 10:00:00 18.2 17 Noroeste 32 Noroeste 0 -- -- 64
2019-08-11 09:00:00 16 14 Oeste 27 Oeste 0 -- -- 77
2019-08-11 08:00:00 14.3 8 Oeste 17 Oeste 0 -- -- 84
2019-08-11 07:00:00 14.7 10 Oeste 26 Oeste 0 -- -- 83
2019-08-11 06:00:00 15.4 16 Oeste 26 Oeste 0 -- -- 80
2019-08-11 05:00:00 16.1 12 Oeste 34 Oeste 0 -- -- 75
2019-08-11 04:00:00 17.9 14 Noroeste 30 Oeste 0 -- -- 61
2019-08-11 03:00:00 18.2 8 Oeste 28 Oeste 0 -- -- 62
2019-08-11 02:00:00 18.9 15 Oeste 35 Noroeste 0 -- -- 57
2019-08-11 01:00:00 19.3 17 Noroeste 34 Noroeste 0 -- -- 54
2019-08-11 00:00:00 20.5 18 Noroeste 36 Noroeste -- -- -- 56
2019-08-10 23:00:00 21.8 22 Noroeste 40 Noroeste 0 -- -- 54
2019-08-10 22:00:00 24.9 19 Noroeste 33 Noroeste 0 -- -- 43
2019-08-10 21:00:00 26.2 18 Noroeste 31 Noroeste 0 -- -- 37
2019-08-10 20:00:00 28.2 19 Noroeste 33 Noroeste 0 -- -- 34
2019-08-10 19:00:00 31.4 14 Oeste 27 Oeste 0 -- -- 25
2019-08-10 18:00:00 31.6 10 Noroeste 22 Noroeste 0 -- -- 22
2019-08-10 17:00:00 31.7 10 Noroeste 24 Noroeste 0 -- -- 19
2019-08-10 16:00:00 31.1 11 Oeste 22 Noroeste 0 -- -- 24
2019-08-10 15:00:00 29.2 10 Oeste 23 Oeste 0 -- -- 29
2019-08-10 14:00:00 28.6 8 Oeste 17 Oeste 0 -- -- 30
2019-08-10 13:00:00 26.7 8 Noroeste 18 Noroeste 0 -- -- 36
2019-08-10 12:00:00 24.4 6 Noroeste 16 Oeste 0 -- -- 49
2019-08-10 11:00:00 21.3 11 Oeste 18 Oeste 0 -- -- 63
2019-08-10 10:00:00 18.6 6 Sudoeste 12 Oeste 0 -- -- 79
2019-08-10 09:00:00 17 8 Oeste 10 Oeste 0 -- -- 89
2019-08-10 08:00:00 15.5 6 Oeste 9 Oeste 0 -- -- 91
2019-08-10 07:00:00 15.9 3 Oeste 5 Sur 0 -- -- 88
2019-08-10 06:00:00 16.3 0 Calma 9 Oeste 0 -- -- 87
2019-08-10 05:00:00 16.7 3 Sudoeste 8 Oeste 0 -- -- 84
2019-08-10 04:00:00 17.2 4 Oeste 10 Noroeste 0 -- -- 81
2019-08-10 03:00:00 18 4 Oeste 14 Oeste 0 -- -- 77
2019-08-10 02:00:00 19.2 9 Noroeste 17 Noroeste 0 -- -- 73
2019-08-10 01:00:00 20.5 10 Oeste 20 Oeste 0 -- -- 67
2019-08-10 00:00:00 21.2 6 Oeste 12 Noroeste 0 -- -- 62
2019-08-09 23:00:00 22.3 9 Noroeste 13 Noroeste 0 -- -- 58
2019-08-09 22:00:00 23.5 7 Noroeste 20 Noroeste 0 -- -- 53
2019-08-09 21:00:00 25.8 12 Noroeste 21 Noroeste 0 -- -- 48
2019-08-09 20:00:00 27.3 9 Noroeste 24 Oeste 0 -- -- 55
2019-08-09 19:00:00 27.7 14 Oeste 23 Noroeste 0 -- -- 54
2019-08-09 18:00:00 26.3 14 Noroeste 26 Noroeste 0 -- -- 58
2019-08-09 17:00:00 25.4 12 Noroeste 25 Noroeste 0 -- -- 63
2019-08-09 16:00:00 25.4 14 Noroeste 30 Noroeste 0 -- -- 62
2019-08-09 15:00:00 22.7 15 Noroeste 31 Noroeste 0 -- -- 77
2019-08-09 14:00:00 24.3 17 Noroeste 33 Oeste 0 -- -- 80
2019-08-09 13:00:00 26.6 18 Sudoeste 27 Sudoeste 0 -- -- 69
2019-08-09 12:00:00 23.9 17 Sudoeste 30 Sur 0 -- -- 82
2019-08-09 11:00:00 23.4 22 Sudoeste 31 Sudoeste 0 -- -- 81
2019-08-09 10:00:00 22.4 17 Sudoeste 26 Sur 0 -- -- 86
2019-08-09 09:00:00 22.1 16 Sudoeste 23 Sudoeste 0 -- -- 85
2019-08-09 08:00:00 21.7 18 Sudoeste 27 Sudoeste 0 -- -- 86
2019-08-09 07:00:00 21.7 14 Sudoeste 28 Oeste 0 -- -- 86
2019-08-09 06:00:00 21.8 17 Sudoeste 25 Sudoeste 0 -- -- 85
2019-08-09 05:00:00 21.7 15 Sudoeste 24 Sudoeste 0 -- -- 83
2019-08-09 04:00:00 21.5 18 Sudoeste 27 Sudoeste 0 -- -- 84
2019-08-09 03:00:00 21.4 14 Oeste 31 Oeste 0 -- -- 84
2019-08-09 02:00:00 21.7 16 Sudoeste 28 Sudoeste 0 -- -- 81
2019-08-09 01:00:00 22.5 18 Sudoeste 26 Sudoeste 0 -- -- 75
2019-08-09 00:00:00 23.6 13 Oeste 25 Oeste 0 -- -- 67
2019-08-08 23:00:00 25.3 14 Oeste 32 Oeste 0 -- -- 65
2019-08-08 22:00:00 27.4 20 Oeste 37 Oeste 0 -- -- 56
2019-08-08 21:00:00 30.3 20 Oeste 37 Oeste 0 -- -- 46
2019-08-08 20:00:00 32.1 21 Oeste 39 Oeste 0 -- -- 40
2019-08-08 19:00:00 32.9 21 Oeste 40 Oeste 0 -- -- 39
2019-08-08 18:00:00 33.9 20 Oeste 40 Oeste 0 -- -- 34
2019-08-08 17:00:00 33.6 19 Sudoeste 33 Oeste 0 -- -- 38
2019-08-08 16:00:00 33 16 Sudoeste 31 Oeste 0 -- -- 36
2019-08-08 15:00:00 31.9 16 Oeste 29 Oeste 0 -- -- 41
2019-08-08 14:00:00 31.2 14 Sudoeste 22 Sudoeste 0 -- -- 46
2019-08-08 13:00:00 29.3 10 Sudoeste 23 Sudoeste 0 -- -- 49
2019-08-08 12:00:00 27.8 9 Sur 17 Sur 0 -- -- 54
2019-08-08 11:00:00 25.4 7 Oeste 14 Sudoeste 0 -- -- 62
2019-08-08 10:00:00 23.1 8 Sudoeste 12 Sudoeste 0 -- -- 65
2019-08-08 09:00:00 20.5 6 Sudoeste 9 Sudoeste 0 -- -- 74
2019-08-08 08:00:00 18.5 6 Sur 9 Sudoeste 0 -- -- 80
2019-08-08 07:00:00 18.8 4 Sudoeste 6 Sudoeste 0 -- -- 78
2019-08-08 06:00:00 19.2 4 Sur 10 Sur 0 -- -- 77
2019-08-08 05:00:00 19.6 7 Sur 9 Sur 0 -- -- 77
2019-08-08 04:00:00 20.5 4 Sudoeste 12 Oeste 0 -- -- 75
2019-08-08 03:00:00 21.8 9 Sudoeste 16 Sudoeste 0 -- -- 70
2019-08-08 02:00:00 23.1 12 Sudoeste 15 Sudoeste 0 -- -- 64
2019-08-08 01:00:00 23.7 11 Sudoeste 18 Sudoeste 0 -- -- 62
2019-08-08 00:00:00 24.8 14 Sudoeste 20 Sudoeste 0 -- -- 52
2019-08-07 23:00:00 24.6 8 Sur 13 Sur 0 -- -- 53
2019-08-07 22:00:00 26.1 7 Sudoeste 14 Sudoeste 0 -- -- 50
2019-08-07 21:00:00 27.8 11 Sudoeste 17 Sudoeste 0 -- -- 45
2019-08-07 20:00:00 29.1 9 Oeste 16 Oeste 0 -- -- 41
2019-08-07 19:00:00 28.9 9 Sudoeste 15 Sudoeste 0 -- -- 44
2019-08-07 18:00:00 27.8 5 Sur 13 Norte 0 -- -- 46
2019-08-07 17:00:00 27.3 4 Noroeste 12 Noroeste 0 -- -- 49
2019-08-07 16:00:00 27 5 Oeste 14 Oeste 0 -- -- 49
2019-08-07 15:00:00 26.4 5 Noroeste 13 Nordeste 0 -- -- 50
2019-08-07 14:00:00 26 8 Norte 16 Noroeste 0 -- -- 54
2019-08-07 13:00:00 24.1 7 Oeste 26 Nordeste 0 -- -- 63
2019-08-07 12:00:00 24.5 13 Oeste 24 Noroeste 0 -- -- 64
2019-08-07 11:00:00 22.1 12 Oeste 19 Oeste 0 -- -- 73
2019-08-07 10:00:00 21 8 Oeste 21 Oeste 0 -- -- 78
2019-08-07 09:00:00 19.4 9 Sudoeste 14 Sudoeste 0 -- -- 84
2019-08-07 08:00:00 18.5 9 Oeste 18 Oeste 0 -- -- 87
2019-08-07 07:00:00 18.8 12 Oeste 18 Oeste 0 -- -- 84
2019-08-07 06:00:00 19.2 13 Sudoeste 20 Sudoeste 0 -- -- 82
2019-08-07 05:00:00 19.3 12 Sudoeste 17 Sudoeste 0 -- -- 81
2019-08-07 04:00:00 19.6 6 Oeste 15 Oeste 0 -- -- 79
2019-08-07 03:00:00 20.3 7 Oeste 14 Oeste 0 -- -- 76
2019-08-07 02:00:00 21.2 9 Oeste 25 Oeste 0 -- -- 72
2019-08-07 01:00:00 22.5 10 Oeste 23 Oeste 0 -- -- 68
2019-08-07 00:00:00 23.7 13 Oeste 27 Oeste 0 -- -- 63
2019-08-06 23:00:00 25 15 Oeste 27 Noroeste 0 -- -- 57
2019-08-06 22:00:00 26.8 12 Oeste 27 Noroeste 0 -- -- 49
2019-08-06 21:00:00 29.3 16 Noroeste 32 Noroeste 0 -- -- 43
2019-08-06 20:00:00 31.8 17 Noroeste 31 Oeste 0 -- -- 35
2019-08-06 19:00:00 34.2 17 Noroeste 34 Oeste 0 -- -- 32
2019-08-06 18:00:00 34.6 16 Oeste 32 Oeste 0 -- -- 29
2019-08-06 17:00:00 34.3 18 Sudoeste 32 Oeste 0 -- -- 29
2019-08-06 16:00:00 34.4 14 Oeste 33 Oeste 0 -- -- 30
2019-08-06 15:00:00 32.6 15 Oeste 29 Sudoeste 0 -- -- 35
2019-08-06 14:00:00 30.6 13 Oeste 25 Sudoeste 0 -- -- 41
2019-08-06 13:00:00 28 14 Oeste 24 Oeste 0 -- -- 49
2019-08-06 12:00:00 26.3 11 Oeste 21 Oeste 0 -- -- 55
2019-08-06 11:00:00 23.2 11 Oeste 22 Oeste 0 -- -- 66
2019-08-06 10:00:00 21.3 12 Oeste 20 Oeste 0 -- -- 74
2019-08-06 09:00:00 19.2 10 Oeste 15 Oeste 0 -- -- 83
2019-08-06 08:00:00 18 9 Sudoeste 16 Sudoeste 0 -- -- 88
2019-08-06 07:00:00 18.3 11 Oeste 31 Oeste 0 -- -- 87
2019-08-06 06:00:00 17.5 13 Oeste 29 Noroeste 0 -- -- 88
2019-08-06 05:00:00 17.9 13 Oeste 23 Oeste 0 -- -- 88
2019-08-06 04:00:00 18.3 13 Oeste 20 Oeste 0 -- -- 84
2019-08-06 03:00:00 19.2 9 Oeste 23 Oeste 0 -- -- 78
2019-08-06 02:00:00 20.6 18 Oeste 27 Oeste 0 -- -- 67
2019-08-06 01:00:00 22 15 Oeste 27 Noroeste 0 -- -- 57
2019-08-06 00:00:00 24 13 Oeste 33 Noroeste 0 -- -- 48
2019-08-05 23:00:00 26.8 17 Noroeste 28 Noroeste 0 -- -- 41
2019-08-05 22:00:00 29 12 Noroeste 27 Noroeste 0 -- -- 33
2019-08-05 21:00:00 32.4 14 Noroeste 27 Noroeste 0 -- -- 24
2019-08-05 20:00:00 34.4 14 Noroeste 28 Noroeste 0 -- -- 23
2019-08-05 19:00:00 35.6 13 Noroeste 30 Noroeste 0 -- -- 21
2019-08-05 18:00:00 35.8 9 Oeste 23 Oeste 0 -- -- 23
2019-08-05 17:00:00 35.5 12 Oeste 23 Sudoeste 0 -- -- 21
2019-08-05 16:00:00 34 11 Oeste 23 Oeste 0 -- -- 20
2019-08-05 15:00:00 32.1 13 Sudoeste 21 Oeste 0 -- -- 23
2019-08-05 14:00:00 30.1 12 Sudoeste 22 Oeste 0 -- -- 32
2019-08-05 13:00:00 27.6 11 Oeste 22 Oeste 0 -- -- 40
2019-08-05 12:00:00 24.1 9 Sudoeste 20 Oeste 0 -- -- 52
2019-08-05 11:00:00 21.1 10 Oeste 16 Oeste 0 -- -- 62
2019-08-05 10:00:00 18.3 9 Oeste 15 Oeste 0 -- -- 73
2019-08-05 09:00:00 15.6 8 Oeste 13 Noroeste 0 -- -- 85
2019-08-05 08:00:00 13.8 7 Oeste 15 Oeste 0 -- -- 92
2019-08-05 07:00:00 14 7 Oeste 22 Oeste 0 -- -- 90
2019-08-05 06:00:00 15 15 Oeste 25 Oeste 0 -- -- 86
2019-08-05 05:00:00 15.7 18 Oeste 28 Oeste 0 -- -- 82
2019-08-05 04:00:00 16.3 14 Oeste 22 Oeste 0 -- -- 79
2019-08-05 03:00:00 17.3 13 Oeste 23 Oeste 0 -- -- 75
2019-08-05 02:00:00 19 15 Oeste 24 Oeste 0 -- -- 70
2019-08-05 01:00:00 20.7 15 Oeste 25 Oeste 0 -- -- 62
2019-08-05 00:00:00 23.1 14 Oeste 26 Oeste 0 -- -- 54
2019-08-04 23:00:00 25.2 15 Noroeste 31 Noroeste 0 -- -- 46
2019-08-04 22:00:00 27.5 15 Noroeste 30 Oeste 0 -- -- 44
2019-08-04 21:00:00 30.6 18 Noroeste 31 Noroeste 0 -- -- 34
2019-08-04 20:00:00 32.7 18 Noroeste 35 Oeste 0 -- -- 31
2019-08-04 19:00:00 34.9 12 Noroeste 32 Oeste 0 -- -- 26
2019-08-04 18:00:00 35.4 11 Oeste 30 Oeste 0 -- -- 25
2019-08-04 17:00:00 35.3 14 Oeste 30 Oeste 0 -- -- 25
2019-08-04 16:00:00 35.2 12 Noroeste 29 Oeste 0 -- -- 26
2019-08-04 15:00:00 33.3 14 Noroeste 28 Oeste 0 -- -- 29
2019-08-04 14:00:00 30.8 13 Oeste 24 Oeste 0 -- -- 38
2019-08-04 13:00:00 28.3 10 Sudoeste 20 Oeste 0 -- -- 45
2019-08-04 12:00:00 25.3 10 Sudoeste 18 Oeste 0 -- -- 55
2019-08-04 11:00:00 22.4 12 Oeste 20 Sudoeste 0 -- -- 67
2019-08-04 10:00:00 20 13 Oeste 20 Oeste 0 -- -- 77
2019-08-04 09:00:00 18.3 14 Oeste 19 Oeste 0 -- -- 84
2019-08-04 08:00:00 16.9 11 Oeste 22 Oeste 0 -- -- 91
2019-08-04 07:00:00 17 12 Sudoeste 20 Oeste 0 -- -- 91
2019-08-04 06:00:00 17.4 11 Oeste 22 Oeste 0 -- -- 89
2019-08-04 05:00:00 17.8 15 Oeste 24 Oeste 0 -- -- 88
2019-08-04 04:00:00 18.3 15 Oeste 27 Oeste 0 -- -- 86
2019-08-04 03:00:00 19.1 16 Oeste 27 Oeste 0 -- -- 80
2019-08-04 02:00:00 20.6 18 Oeste 29 Oeste 0 -- -- 72
2019-08-04 01:00:00 22.2 16 Oeste 26 Oeste 0 -- -- 65
2019-08-04 00:00:00 23.6 12 Oeste 31 Noroeste 0 -- -- 58
2019-08-03 23:00:00 25.7 21 Noroeste 35 Noroeste 0 -- -- 53
2019-08-03 22:00:00 28.6 20 Noroeste 37 Oeste 0 -- -- 45
2019-08-03 21:00:00 33.1 13 Noroeste 22 Noroeste 0 -- -- 28
2019-08-03 20:00:00 34.8 11 Oeste 25 Oeste 0 -- -- 21
2019-08-03 19:00:00 35.3 5 Sudoeste 26 Sudoeste 0 -- -- 22
2019-08-03 18:00:00 35.3 14 Sudoeste 25 Sudoeste 0 -- -- 21
2019-08-03 17:00:00 34.7 12 Sudoeste 40 Sur 0 -- -- 23
2019-08-03 16:00:00 33.9 15 Oeste 28 Oeste 0 -- -- 22
2019-08-03 15:00:00 32.6 17 Sudoeste 30 Sudoeste 0 -- -- 26
2019-08-03 14:00:00 30.9 15 Sudoeste 25 Sudoeste 0 -- -- 31
2019-08-03 13:00:00 28.8 10 Sudoeste 22 Sudoeste 0 -- -- 38
2019-08-03 12:00:00 26 13 Sudoeste 24 Sudoeste 0 -- -- 46
2019-08-03 11:00:00 22.6 10 Oeste 19 Oeste 0 -- -- 56
2019-08-03 10:00:00 19.6 12 Sudoeste 21 Sudoeste 0 -- -- 67
2019-08-03 09:00:00 16.7 8 Sudoeste 15 Sudoeste 0 -- -- 79
2019-08-03 08:00:00 15.2 12 Sudoeste 20 Sudoeste 0 -- -- 84
2019-08-03 07:00:00 15.5 13 Oeste 18 Oeste 0 -- -- 84
2019-08-03 06:00:00 15.9 10 Sudoeste 18 Oeste 0 -- -- 81
2019-08-03 05:00:00 16.5 12 Oeste 19 Oeste 0 -- -- 79
2019-08-03 04:00:00 17.2 14 Oeste 22 Oeste 0 -- -- 77
2019-08-03 03:00:00 18.7 14 Oeste 20 Sudoeste 0 -- -- 72
2019-08-03 02:00:00 20.4 14 Oeste 24 Sudoeste 0 -- -- 66
2019-08-03 01:00:00 22.3 12 Oeste 21 Oeste 0 -- -- 62
2019-08-03 00:00:00 24.4 11 Oeste 22 Oeste 0 -- -- 56
2019-08-02 23:00:00 26.8 13 Noroeste 35 Noroeste 0 -- -- 48
2019-08-02 22:00:00 29.6 12 Noroeste 17 Oeste 0 -- -- 32
2019-08-02 21:00:00 33.4 9 Noroeste 19 Oeste 0 -- -- 23
2019-08-02 20:00:00 34.8 8 Oeste 21 Oeste 0 -- -- 20
2019-08-02 19:00:00 35.1 7 Sudoeste 21 Oeste 0 -- -- 18
2019-08-02 18:00:00 34.7 7 Nordeste 21 Oeste 0 -- -- 19
2019-08-02 17:00:00 34.4 12 Sudoeste 21 Sudoeste 0 -- -- 20
2019-08-02 16:00:00 33.1 8 Noroeste 20 Oeste 0 -- -- 22
2019-08-02 15:00:00 31.1 11 Noroeste 18 Oeste 0 -- -- 29
2019-08-02 14:00:00 28.1 7 Sudoeste 18 Oeste 0 -- -- 36
2019-08-02 13:00:00 26 8 Oeste 21 Sudoeste 0 -- -- 44
2019-08-02 12:00:00 23.4 9 Oeste 19 Oeste 0 -- -- 53
2019-08-02 11:00:00 20.5 9 Sudoeste 18 Sudoeste 0 -- -- 66
2019-08-02 10:00:00 18.3 9 Oeste 18 Oeste 0 -- -- 75
2019-08-02 09:00:00 16.2 8 Oeste 20 Oeste 0 -- -- 85
2019-08-02 08:00:00 15.3 11 Oeste 23 Oeste 0 -- -- 89
2019-08-02 07:00:00 14.4 10 Oeste 16 Oeste 0 -- -- 92
2019-08-02 06:00:00 14.6 11 Oeste 21 Oeste 0 -- -- 90
2019-08-02 05:00:00 15.3 11 Oeste 22 Oeste 0 -- -- 87
2019-08-02 04:00:00 15.9 12 Oeste 25 Oeste 0 -- -- 83
2019-08-02 03:00:00 16.9 16 Oeste 25 Oeste 0 -- -- 75
2019-08-02 02:00:00 18.5 7 Oeste 27 Oeste 0 -- -- 61
2019-08-02 01:00:00 20.2 16 Oeste 28 Oeste 0 -- -- 53
2019-08-02 00:00:00 22.6 13 Oeste 28 Noroeste 0 -- -- 47
2019-08-01 23:00:00 25.1 17 Noroeste 34 Noroeste 0 -- -- 38
2019-08-01 22:00:00 27.5 13 Noroeste 31 Oeste 0 -- -- 31
2019-08-01 21:00:00 31.1 18 Noroeste 32 Noroeste 0 -- -- 26
2019-08-01 20:00:00 33.4 15 Noroeste 30 Noroeste 0 -- -- 23
2019-08-01 19:00:00 34.5 15 Noroeste 30 Noroeste 0 -- -- 20
2019-08-01 18:00:00 35.4 10 Noroeste 32 Oeste 0 -- -- 19
2019-08-01 17:00:00 35.2 11 Noroeste 29 Oeste 0 -- -- 20
2019-08-01 16:00:00 34.3 15 Oeste 32 Oeste 0 -- -- 24
2019-08-01 15:00:00 32.7 12 Sudoeste 24 Sudoeste 0 -- -- 29
2019-08-01 14:00:00 31.1 12 Sudoeste 24 Oeste 0 -- -- 31
2019-08-01 13:00:00 28.7 14 Oeste 22 Oeste 0 -- -- 38
2019-08-01 12:00:00 26.1 13 Sudoeste 23 Sudoeste 0 -- -- 43
2019-08-01 11:00:00 22.6 14 Sudoeste 21 Oeste 0 -- -- 51
2019-08-01 10:00:00 19.5 14 Sudoeste 20 Sudoeste 0 -- -- 61
2019-08-01 09:00:00 16.9 14 Sudoeste 24 Sudoeste 0 -- -- 71
2019-08-01 08:00:00 16.2 17 Sudoeste 23 Sudoeste 0 -- -- 69
2019-08-01 07:00:00 16.9 13 Sudoeste 17 Sudoeste 0 -- -- 67
2019-08-01 06:00:00 17 14 Sudoeste 19 Sudoeste 0 -- -- 67
2019-08-01 05:00:00 17.1 13 Oeste 20 Oeste 0 -- -- 66
2019-08-01 04:00:00 18.6 13 Oeste 20 Oeste 0 -- -- 61
2019-08-01 03:00:00 20.3 14 Sudoeste 19 Sudoeste 0 -- -- 56
2019-08-01 02:00:00 21.2 10 Oeste 19 Oeste 0 -- -- 52
2019-08-01 01:00:00 23.1 10 Oeste 22 Oeste 0 -- -- 46
2019-08-01 00:00:00 24.8 8 Noroeste 20 Noroeste 0 -- -- 42
2019-07-31 23:00:00 25.7 6 Oeste 19 Oeste 0 -- -- 37
2019-07-31 22:00:00 26.7 13 Noroeste 30 Noroeste 0 -- -- 37
2019-07-31 21:00:00 27.8 17 Noroeste 38 Noroeste 0 -- -- 35
2019-07-31 20:00:00 31.5 23 Noroeste 41 Noroeste 0 -- -- 27
2019-07-31 19:00:00 35.5 17 Oeste 31 Oeste 0 -- -- 13
2019-07-31 18:00:00 36 17 Sudoeste 33 Oeste 0 -- -- 13
2019-07-31 17:00:00 35.6 16 Sudoeste 28 Oeste 0 -- -- 13
2019-07-31 16:00:00 35.3 17 Oeste 31 Oeste 0 -- -- 15
2019-07-31 15:00:00 34.3 13 Oeste 27 Sudoeste 0 -- -- 17
2019-07-31 14:00:00 32.5 9 Oeste 21 Oeste 0 -- -- 19
2019-07-31 13:00:00 30.7 9 Noroeste 17 Oeste 0 -- -- 23
2019-07-31 12:00:00 27.3 7 Norte 15 Norte 0 -- -- 31
2019-07-31 11:00:00 24.8 9 Nordeste 14 Norte 0 -- -- 34
2019-07-31 10:00:00 20.1 5 Oeste 8 Oeste 0 -- -- 54
2019-07-31 09:00:00 16.4 3 Sudoeste 6 Sudoeste 0 -- -- 67
2019-07-31 08:00:00 14.1 5 Sudoeste 7 Oeste 0 -- -- 75
2019-07-31 07:00:00 14 5 Sudoeste 7 Sur 0 -- -- 74
2019-07-31 06:00:00 14.5 5 Sudoeste 11 Oeste 0 -- -- 73
2019-07-31 05:00:00 15.3 9 Oeste 11 Oeste 0 -- -- 70
2019-07-31 04:00:00 16.1 7 Sudoeste 10 Sudoeste 0 -- -- 66
2019-07-31 03:00:00 16.7 8 Sudoeste 13 Sudoeste 0 -- -- 63
2019-07-31 02:00:00 17.9 10 Oeste 17 Oeste 0 -- -- 58
2019-07-31 01:00:00 19.1 10 Oeste 14 Oeste 0 -- -- 55
2019-07-31 00:00:00 20.8 9 Oeste 26 Noroeste 0 -- -- 51
2019-07-30 23:00:00 23.2 14 Noroeste 32 Noroeste 0 -- -- 45
2019-07-30 22:00:00 26.4 17 Noroeste 28 Noroeste 0 -- -- 35
2019-07-30 21:00:00 29.9 12 Norte 22 Nordeste 0 -- -- 18
2019-07-30 20:00:00 31 16 Norte 29 Norte 0 -- -- 16
2019-07-30 19:00:00 31.4 17 Norte 30 Norte 0 -- -- 16
2019-07-30 18:00:00 31.5 15 Norte 33 Nordeste 0 -- -- 18
2019-07-30 17:00:00 30.7 20 Norte 33 Norte 0 -- -- 19
2019-07-30 16:00:00 29.9 17 Norte 37 Norte 0 -- -- 19
2019-07-30 15:00:00 29.6 18 Norte 31 Norte 0 -- -- 19
2019-07-30 14:00:00 28.1 18 Norte 29 Norte 0 -- -- 23
2019-07-30 13:00:00 26 19 Norte 31 Nordeste 0 -- -- 27
2019-07-30 12:00:00 23.7 17 Norte 33 Norte 0 -- -- 35
2019-07-30 11:00:00 21.2 22 Norte 29 Norte 0 -- -- 42
2019-07-30 10:00:00 19.2 14 Norte 22 Norte 0 -- -- 51
2019-07-30 09:00:00 15.9 2 Norte 9 Norte 0 -- -- 65
2019-07-30 08:00:00 12.7 0 Calma 8 Oeste 0 -- -- 81
2019-07-30 07:00:00 12.7 5 Oeste 8 Oeste 0 -- -- 81
2019-07-30 06:00:00 13.2 6 Oeste 8 Oeste 0 -- -- 79
2019-07-30 05:00:00 13.6 5 Oeste 9 Oeste 0 -- -- 77
2019-07-30 04:00:00 14.3 6 Oeste 9 Oeste 0 -- -- 74
2019-07-30 03:00:00 15.1 5 Oeste 13 Oeste 0 -- -- 70
2019-07-30 02:00:00 16.4 8 Oeste 17 Oeste 0 -- -- 64
2019-07-30 01:00:00 17.9 11 Noroeste 22 Noroeste 0 -- -- 56
2019-07-30 00:00:00 19.3 12 Noroeste 29 Noroeste 0 -- -- 50
2019-07-29 23:00:00 21 17 Noroeste 34 Noroeste 0 -- -- 46
2019-07-29 22:00:00 23.1 15 Noroeste 36 Norte 0 -- -- 40
2019-07-29 21:00:00 26.4 21 Noroeste 36 Noroeste 0 -- -- 33
2019-07-29 20:00:00 28.5 24 Noroeste 40 Noroeste 0 -- -- 28
2019-07-29 19:00:00 30.2 18 Noroeste 37 Noroeste 0 -- -- 28
2019-07-29 18:00:00 30.6 18 Noroeste 34 Noroeste 0 -- -- 27
2019-07-29 17:00:00 30.7 19 Noroeste 35 Oeste 0 -- -- 26
2019-07-29 16:00:00 30.1 19 Noroeste 32 Noroeste 0 -- -- 31
2019-07-29 15:00:00 29.1 14 Noroeste 32 Noroeste 0 -- -- 36
2019-07-29 14:00:00 27.4 14 Oeste 28 Noroeste 0 -- -- 43
2019-07-29 13:00:00 25.8 13 Oeste 32 Oeste 0 -- -- 53
2019-07-29 12:00:00 24.5 18 Noroeste 31 Noroeste 0 -- -- 58
2019-07-29 11:00:00 22.5 20 Noroeste 31 Noroeste 0 -- -- 66
2019-07-29 10:00:00 20.6 15 Oeste 32 Noroeste 0 -- -- 73
2019-07-29 09:00:00 18 14 Oeste 24 Oeste 0 -- -- 79
2019-07-29 08:00:00 15.7 11 Oeste 30 Oeste 0 -- -- 80
2019-07-29 07:00:00 15.7 17 Oeste 30 Oeste 0 -- -- 76
2019-07-29 06:00:00 15.9 17 Oeste 30 Oeste 0 -- -- 66
2019-07-29 05:00:00 16.3 19 Oeste 30 Oeste 0 -- -- 58
2019-07-29 04:00:00 16.8 15 Oeste 22 Sudoeste 0 -- -- 59
2019-07-29 03:00:00 17.8 14 Oeste 22 Oeste 0 -- -- 61
2019-07-29 02:00:00 19.5 14 Oeste 29 Oeste 0 -- -- 58
2019-07-29 01:00:00 21.4 16 Oeste 28 Oeste 0 -- -- 55
2019-07-29 00:00:00 23.4 12 Noroeste 34 Noroeste 0 -- -- 49
2019-07-28 23:00:00 25.4 15 Noroeste 35 Noroeste 0 -- -- 43
2019-07-28 22:00:00 27.7 15 Noroeste 27 Noroeste 0 -- -- 43
2019-07-28 21:00:00 31.2 10 Noroeste 20 Noroeste 0 -- -- 30
2019-07-28 20:00:00 32.7 10 Oeste 22 Noroeste 0 -- -- 28
2019-07-28 19:00:00 32.9 9 Sudoeste 21 Oeste 0 -- -- 30
2019-07-28 18:00:00 32.2 8 Norte 18 Noroeste 0 -- -- 32
2019-07-28 17:00:00 31.7 5 Oeste 17 Norte 0 -- -- 31
2019-07-28 16:00:00 30.9 7 Este 19 Oeste 0 -- -- 36
2019-07-28 15:00:00 29.4 6 Nordeste 16 Oeste 0 -- -- 40
2019-07-28 14:00:00 28.4 9 Oeste 20 Oeste 0 -- -- 44
2019-07-28 13:00:00 26.3 11 Sudoeste 22 Oeste 0 -- -- 50
2019-07-28 12:00:00 23.7 7 Oeste 16 Norte 0 -- -- 62
2019-07-28 11:00:00 20.8 11 Sudoeste 17 Oeste 0 -- -- 72
2019-07-28 10:00:00 18.4 12 Sudoeste 20 Sudoeste 0 -- -- 82
2019-07-28 09:00:00 17.1 11 Sudoeste 16 Sudoeste 0 -- -- 90
2019-07-28 08:00:00 15.7 9 Sudoeste 14 Sudoeste 0 -- -- 94
2019-07-28 07:00:00 15.7 9 Sudoeste 13 Sudoeste 0 -- -- 94
2019-07-28 06:00:00 15.8 7 Sudoeste 12 Sudoeste 0 -- -- 92
2019-07-28 05:00:00 16 8 Oeste 14 Sudoeste 0 -- -- 90
2019-07-28 04:00:00 16.6 8 Sudoeste 17 Oeste 0 -- -- 87
2019-07-28 03:00:00 17.1 9 Oeste 17 Oeste 0 -- -- 84
2019-07-28 02:00:00 17.9 10 Oeste 15 Oeste 0 -- -- 78
2019-07-28 01:00:00 19 9 Oeste 17 Oeste 0 -- -- 71
2019-07-28 00:00:00 19.8 7 Sudoeste 12 Sudoeste 0 -- -- 64
2019-07-27 23:00:00 20.9 6 Noroeste 19 Noroeste 0 -- -- 60
2019-07-26 12:00:00 23.9 12 Oeste 28 Noroeste 0 -- -- 49
2019-07-26 11:00:00 21 16 Oeste 26 Oeste 0 -- -- 61
2019-07-26 10:00:00 18.7 14 Oeste 22 Oeste 0 -- -- 73
2019-07-26 09:00:00 16.5 13 Oeste 23 Oeste 0 -- -- 84
2019-07-26 08:00:00 15.6 13 Oeste 24 Oeste 0 -- -- 88
2019-07-26 07:00:00 15.5 11 Oeste 18 Oeste 0 -- -- 87
2019-07-26 06:00:00 15.7 7 Noroeste 21 Noroeste 0 -- -- 87
2019-07-26 05:00:00 16.3 13 Oeste 24 Noroeste 0 -- -- 82
2019-07-26 04:00:00 17.9 12 Oeste 32 Noroeste 0 -- -- 73
2019-07-26 03:00:00 19 16 Oeste 27 Oeste 0 -- -- 71
2019-07-26 02:00:00 19.4 14 Oeste 28 Oeste 0 -- -- 71
2019-07-26 01:00:00 20.4 15 Oeste 36 Oeste 0 -- -- 72
2019-07-26 00:00:00 21.2 19 Oeste 36 Oeste 0 -- -- 73